createdAt,value
2019-03-29T00:01:26.751Z,22.37
2019-03-29T00:03:57.798Z,23.55
2019-03-29T00:06:29.049Z,22.77
2019-03-29T00:09:01.964Z,21.93
2019-03-29T00:11:35.282Z,25.75
2019-03-29T00:14:10.129Z,24.75
2019-03-29T00:16:41.294Z,24.90
2019-03-29T00:19:12.466Z,25.65
2019-03-29T00:21:44.960Z,23.98
2019-03-29T00:24:16.090Z,24.45
2019-03-29T00:26:47.544Z,22.82
2019-03-29T00:29:19.055Z,23.22
2019-03-29T00:31:50.252Z,22.45
2019-03-29T00:34:21.495Z,21.15
2019-03-29T00:36:52.739Z,22.07
2019-03-29T00:39:25.505Z,22.40
2019-03-29T00:41:56.708Z,23.40
2019-03-29T00:44:28.820Z,22.77
2019-03-29T00:47:00.114Z,22.90
2019-03-29T00:49:31.296Z,23.90
2019-03-29T00:52:02.401Z,28.90
2019-03-29T00:54:33.497Z,24.63
2019-03-29T00:57:05.016Z,25.82
2019-03-29T00:59:36.358Z,26.82
2019-03-29T01:02:07.454Z,25.85
2019-03-29T01:04:38.737Z,26.57
2019-03-29T01:07:09.834Z,25.75
2019-03-29T01:09:41.050Z,26.02
2019-03-29T01:12:12.103Z,26.50
2019-03-29T01:14:43.303Z,24.23
2019-03-29T01:17:14.417Z,25.20
2019-03-29T01:19:45.626Z,25.32
2019-03-29T01:22:16.795Z,24.45
2019-03-29T01:24:47.998Z,23.83
2019-03-29T01:27:19.445Z,23.60
2019-03-29T01:29:51.576Z,21.48
2019-03-29T01:32:22.741Z,26.07
2019-03-29T01:34:53.931Z,22.27
2019-03-29T01:37:24.990Z,23.42
2019-03-29T01:39:57.241Z,21.97
2019-03-29T01:42:28.263Z,23.02
2019-03-29T01:45:00.392Z,24.57
2019-03-29T01:47:31.511Z,26.10
2019-03-29T01:50:02.944Z,31.80
2019-03-29T01:52:34.056Z,30.23
2019-03-29T01:55:08.281Z,31.85
2019-03-29T01:57:39.513Z,30.77
2019-03-29T02:00:10.735Z,30.30
2019-03-29T02:02:41.975Z,28.65
2019-03-29T02:05:13.013Z,26.95
2019-03-29T02:07:44.147Z,24.90
2019-03-29T02:10:15.454Z,25.37
2019-03-29T02:12:46.582Z,25.32
2019-03-29T02:15:17.709Z,25.50
2019-03-29T02:17:48.954Z,23.85
2019-03-29T02:20:20.039Z,24.25
2019-03-29T02:22:51.153Z,24.67
2019-03-29T02:25:22.359Z,24.75
2019-03-29T02:27:53.471Z,25.57
2019-03-29T02:30:24.728Z,27.37
2019-03-29T02:32:56.031Z,25.05
2019-03-29T02:35:27.025Z,25.35
2019-03-29T02:37:58.244Z,24.05
2019-03-29T02:40:29.340Z,24.20
2019-03-29T02:43:00.385Z,23.98
2019-03-29T02:45:31.474Z,23.57
2019-03-29T02:48:04.143Z,24.60
2019-03-29T02:50:36.652Z,24.63
2019-03-29T02:53:09.030Z,25.45
2019-03-29T02:55:40.122Z,26.85
2019-03-29T02:58:11.478Z,27.85
2019-03-29T03:00:42.579Z,27.65
2019-03-29T03:03:13.667Z,24.63
2019-03-29T03:05:44.834Z,25.00
2019-03-29T03:08:15.952Z,25.27
2019-03-29T03:10:47.149Z,25.08
2019-03-29T03:13:18.298Z,25.23
2019-03-29T03:15:50.848Z,25.12
2019-03-29T03:18:21.940Z,25.57
2019-03-29T03:20:52.985Z,25.20
2019-03-29T03:23:24.112Z,28.12
2019-03-29T03:25:55.240Z,29.05
2019-03-29T03:28:26.487Z,30.02
2019-03-29T03:30:57.654Z,29.95
2019-03-29T03:33:29.826Z,32.38
2019-03-29T03:36:02.173Z,33.33
2019-03-29T03:38:33.239Z,33.80
2019-03-29T03:41:04.287Z,34.53
2019-03-29T03:43:35.449Z,38.02
2019-03-29T03:46:07.734Z,37.53
2019-03-29T03:48:40.044Z,39.13
2019-03-29T03:51:11.098Z,40.35
2019-03-29T03:53:42.562Z,39.10
2019-03-29T03:56:15.169Z,36.68
2019-03-29T03:58:46.234Z,36.53
2019-03-29T04:01:17.338Z,35.65
2019-03-29T04:03:49.300Z,36.45
2019-03-29T04:06:20.365Z,33.58
2019-03-29T04:08:51.549Z,35.20
2019-03-29T04:11:22.631Z,33.78
2019-03-29T04:13:53.884Z,33.13
2019-03-29T04:16:25.127Z,32.00
2019-03-29T04:18:56.169Z,32.42
2019-03-29T04:21:27.253Z,35.73
2019-03-29T04:23:58.374Z,35.68
2019-03-29T04:26:29.710Z,32.48
2019-03-29T04:29:04.606Z,30.52
2019-03-29T04:31:33.623Z,28.25
2019-03-29T04:34:04.702Z,25.57
2019-03-29T04:36:36.008Z,25.43
2019-03-29T04:39:07.217Z,23.20
2019-03-29T04:41:38.494Z,23.07
2019-03-29T04:44:09.560Z,20.75
2019-03-29T04:46:40.920Z,20.25
2019-03-29T04:49:12.287Z,20.23
2019-03-29T04:51:43.400Z,20.23
2019-03-29T04:54:14.366Z,21.07
2019-03-29T04:56:45.493Z,19.30
2019-03-29T04:59:16.546Z,19.23
2019-03-29T05:01:47.673Z,19.32
2019-03-29T05:04:18.821Z,20.88
2019-03-29T05:06:49.921Z,22.45
2019-03-29T05:09:22.756Z,21.60
2019-03-29T05:11:53.890Z,22.20
2019-03-29T05:14:24.941Z,20.45
2019-03-29T05:16:56.051Z,20.45
2019-03-29T05:19:27.118Z,19.35
2019-03-29T05:21:58.340Z,19.52
2019-03-29T05:24:29.496Z,18.02
2019-03-29T05:27:00.569Z,18.92
2019-03-29T05:29:33.194Z,18.02
2019-03-29T05:32:04.334Z,18.00
2019-03-29T05:34:36.977Z,17.67
2019-03-29T05:37:08.167Z,16.15
2019-03-29T05:39:39.416Z,15.48
2019-03-29T05:42:10.627Z,16.57
2019-03-29T05:44:42.149Z,14.80
2019-03-29T05:47:13.207Z,15.53
2019-03-29T05:49:44.440Z,15.68
2019-03-29T05:52:15.493Z,15.35
2019-03-29T05:54:46.749Z,15.05
2019-03-29T05:57:19.376Z,15.63
2019-03-29T05:59:50.707Z,13.83
2019-03-29T06:02:21.887Z,12.50
2019-03-29T06:04:53.207Z,14.00
2019-03-29T06:07:24.426Z,13.75
2019-03-29T06:09:55.554Z,13.20
2019-03-29T06:12:27.031Z,12.55
2019-03-29T06:14:58.437Z,12.15
2019-03-29T06:17:29.501Z,11.75
2019-03-29T06:20:00.846Z,12.68
2019-03-29T06:22:31.998Z,12.63
2019-03-29T06:25:03.127Z,12.55
2019-03-29T06:27:34.152Z,12.50
2019-03-29T06:30:06.757Z,11.83
2019-03-29T06:32:37.951Z,12.35
2019-03-29T06:35:09.142Z,11.95
2019-03-29T06:37:43.075Z,12.88
2019-03-29T06:40:20.853Z,11.38
2019-03-29T06:42:52.057Z,11.78
2019-03-29T06:45:23.162Z,11.25
2019-03-29T06:47:54.212Z,11.70
2019-03-29T06:50:25.396Z,12.43
2019-03-29T06:52:56.710Z,12.73
2019-03-29T06:55:27.969Z,12.25
2019-03-29T06:57:59.171Z,11.73
2019-03-29T07:00:30.467Z,12.53
2019-03-29T07:03:01.792Z,10.93
2019-03-29T07:05:33.014Z,11.48
2019-03-29T07:08:04.422Z,11.65
2019-03-29T07:10:35.642Z,11.95
2019-03-29T07:13:06.780Z,12.28
2019-03-29T07:15:37.794Z,11.18
2019-03-29T07:18:12.485Z,11.90
2019-03-29T07:20:44.621Z,11.10
2019-03-29T07:23:15.717Z,11.83
2019-03-29T07:25:46.951Z,11.70
2019-03-29T07:28:20.203Z,11.40
2019-03-29T07:30:51.351Z,11.95
2019-03-29T07:33:22.479Z,10.68
2019-03-29T07:35:53.636Z,12.07
2019-03-29T07:38:24.662Z,12.68
2019-03-29T07:40:55.753Z,12.23
2019-03-29T07:43:26.782Z,11.45
2019-03-29T07:45:57.858Z,11.50
2019-03-29T07:48:29.008Z,11.10
2019-03-29T07:51:00.130Z,11.75
2019-03-29T07:53:31.157Z,10.82
2019-03-29T07:56:02.278Z,11.35
2019-03-29T07:58:35.818Z,10.70
2019-03-29T08:01:08.362Z,10.95
2019-03-29T08:03:39.682Z,10.78
2019-03-29T08:06:11.319Z,11.22
2019-03-29T08:08:43.286Z,10.08
2019-03-29T08:11:25.465Z,10.15
2019-03-29T08:13:47.290Z,10.58
2019-03-29T08:16:18.874Z,10.82
2019-03-29T08:18:49.987Z,11.45
2019-03-29T08:21:21.163Z,11.65
2019-03-29T08:23:52.324Z,10.65
2019-03-29T08:26:23.379Z,10.82
2019-03-29T08:28:54.585Z,10.72
2019-03-29T08:31:25.795Z,9.58
2019-03-29T08:33:56.876Z,10.03
2019-03-29T08:36:27.911Z,10.13
2019-03-29T08:39:00.163Z,10.28
2019-03-29T08:41:31.327Z,10.85
2019-03-29T08:44:02.460Z,9.63
2019-03-29T08:46:34.547Z,10.43
2019-03-29T08:49:06.668Z,9.98
2019-03-29T08:51:41.217Z,10.15
2019-03-29T08:54:11.702Z,17.60
2019-03-29T08:56:42.869Z,10.25
2019-03-29T08:59:17.228Z,10.43
2019-03-29T09:01:47.015Z,9.35
2019-03-29T09:04:21.495Z,9.95
2019-03-29T09:06:54.155Z,8.63
2019-03-29T09:09:26.533Z,9.13
2019-03-29T09:11:57.652Z,8.43
2019-03-29T09:14:31.383Z,8.48
2019-03-29T09:17:03.969Z,8.30
2019-03-29T09:19:36.422Z,7.70
2019-03-29T09:22:07.523Z,7.50
2019-03-29T09:24:40.103Z,7.58
2019-03-29T09:27:11.218Z,15.60
2019-03-29T09:29:42.387Z,7.67
2019-03-29T09:32:13.620Z,7.83
2019-03-29T09:34:45.766Z,7.80
2019-03-29T09:37:17.010Z,7.40
2019-03-29T09:39:48.497Z,7.37
2019-03-29T09:42:28.814Z,7.05
2019-03-29T09:44:52.565Z,7.50
2019-03-29T09:47:23.783Z,8.18
2019-03-29T09:49:58.060Z,7.65
2019-03-29T09:52:29.238Z,7.37
2019-03-29T09:55:00.427Z,8.08
2019-03-29T09:57:37.518Z,7.47
2019-03-29T10:00:19.286Z,7.00
2019-03-29T10:02:42.954Z,7.08
2019-03-29T10:05:14.112Z,7.03
2019-03-29T10:07:45.518Z,6.95
2019-03-29T10:10:20.176Z,6.72
2019-03-29T10:12:53.648Z,8.25
2019-03-29T10:15:25.180Z,7.12
2019-03-29T10:17:56.229Z,6.97
2019-03-29T10:20:27.249Z,7.15
2019-03-29T10:22:58.346Z,7.33
2019-03-29T10:25:29.439Z,7.90
2019-03-29T10:28:00.428Z,8.83
2019-03-29T10:30:36.681Z,9.45
2019-03-29T10:33:07.906Z,9.85
2019-03-29T10:35:50.963Z,9.05
2019-03-29T10:38:12.577Z,7.92
2019-03-29T10:40:44.629Z,8.28
2019-03-29T10:43:15.661Z,9.10
2019-03-29T10:45:46.743Z,8.63
2019-03-29T10:48:17.924Z,7.90
2019-03-29T10:50:49.303Z,8.43
2019-03-29T10:53:20.413Z,7.92
2019-03-29T10:55:51.599Z,6.50
2019-03-29T10:58:22.526Z,7.37
2019-03-29T11:00:53.529Z,8.18
2019-03-29T11:03:24.611Z,7.95
2019-03-29T11:05:55.823Z,7.15
2019-03-29T11:08:29.970Z,7.17
2019-03-29T11:11:08.589Z,7.95
2019-03-29T11:13:41.159Z,7.45
2019-03-29T11:16:12.930Z,7.50
2019-03-29T11:18:45.741Z,7.70
2019-03-29T11:21:16.779Z,7.45
2019-03-29T11:23:47.977Z,6.05
2019-03-29T11:26:19.973Z,6.70
2019-03-29T11:28:51.095Z,8.18
2019-03-29T11:31:25.353Z,7.53
2019-03-29T11:33:55.020Z,6.67
2019-03-29T11:36:26.098Z,7.72
2019-03-29T11:38:58.455Z,6.80
2019-03-29T11:41:30.018Z,6.40
2019-03-29T11:44:00.946Z,6.72
2019-03-29T11:46:32.027Z,5.12
2019-03-29T11:49:03.089Z,5.45
2019-03-29T11:51:36.751Z,6.08
2019-03-29T11:54:07.855Z,5.47
2019-03-29T11:56:39.024Z,5.03
2019-03-29T11:59:10.141Z,5.55
2019-03-29T12:01:41.413Z,5.17
2019-03-29T12:04:12.500Z,5.12
2019-03-29T12:06:43.689Z,4.70
2019-03-29T12:09:16.736Z,4.97
2019-03-29T12:11:47.578Z,5.08
2019-03-29T12:14:18.693Z,4.40
2019-03-29T12:16:49.960Z,5.08
2019-03-29T12:19:21.048Z,5.35
2019-03-29T12:21:53.492Z,5.12
2019-03-29T12:24:24.892Z,5.45
2019-03-29T12:26:58.266Z,6.00
2019-03-29T12:29:32.726Z,5.10
2019-03-29T12:32:04.180Z,6.97
2019-03-29T12:34:35.217Z,5.35
2019-03-29T12:37:06.268Z,5.10
2019-03-29T12:39:37.288Z,4.95
2019-03-29T12:42:09.908Z,5.47
2019-03-29T12:44:41.039Z,4.87
2019-03-29T12:47:12.068Z,5.17
2019-03-29T12:49:42.991Z,4.92
2019-03-29T12:52:14.130Z,4.30
2019-03-29T12:54:45.215Z,4.70
2019-03-29T12:57:16.443Z,5.08
2019-03-29T12:59:47.534Z,5.37
2019-03-29T13:02:18.738Z,4.72
2019-03-29T13:04:49.888Z,5.00
2019-03-29T13:07:20.924Z,4.87
2019-03-29T13:09:53.558Z,4.75
2019-03-29T13:12:24.824Z,5.42
2019-03-29T13:14:55.858Z,5.50
2019-03-29T13:17:28.581Z,4.95
2019-03-29T13:20:00.753Z,5.17
2019-03-29T13:22:34.846Z,5.17
2019-03-29T13:25:07.561Z,4.70
2019-03-29T13:27:39.951Z,5.15
2019-03-29T13:30:12.019Z,4.85
2019-03-29T13:32:43.151Z,4.78
2019-03-29T13:35:14.081Z,5.00
2019-03-29T13:37:44.968Z,4.62
2019-03-29T13:40:15.891Z,4.92
2019-03-29T13:42:46.942Z,4.87
2019-03-29T13:45:18.800Z,5.50
2019-03-29T13:47:49.836Z,5.70
2019-03-29T13:50:21.229Z,5.58
2019-03-29T13:52:52.273Z,6.80
2019-03-29T13:55:23.933Z,6.97
2019-03-29T13:57:55.259Z,7.10
2019-03-29T14:00:26.431Z,65.10
2019-03-29T14:02:57.737Z,6.45
2019-03-29T14:05:28.828Z,6.17
2019-03-29T14:07:59.893Z,6.40
2019-03-29T14:10:31.068Z,5.62
2019-03-29T14:13:02.286Z,6.75
2019-03-29T14:15:33.486Z,6.37
2019-03-29T14:18:04.653Z,6.35
2019-03-29T14:20:35.975Z,6.10
2019-03-29T14:23:09.087Z,5.92
2019-03-29T14:25:40.261Z,6.12
2019-03-29T14:28:11.310Z,6.70
2019-03-29T14:30:42.495Z,7.00
2019-03-29T14:33:14.601Z,6.25
2019-03-29T14:35:45.662Z,6.25
2019-03-29T14:38:16.794Z,6.72
2019-03-29T14:40:47.904Z,6.45
2019-03-29T14:43:19.218Z,5.85
2019-03-29T14:45:50.422Z,6.08
2019-03-29T14:48:21.797Z,7.00
2019-03-29T14:50:52.921Z,6.87
2019-03-29T14:53:24.186Z,6.87
2019-03-29T14:55:55.207Z,19.48
2019-03-29T14:58:26.441Z,7.70
2019-03-29T15:00:57.594Z,6.83
2019-03-29T15:03:29.695Z,6.67
2019-03-29T15:06:01.819Z,6.90
2019-03-29T15:08:33.192Z,6.67
2019-03-29T15:11:04.317Z,6.60
2019-03-29T15:13:35.504Z,7.12
2019-03-29T15:16:06.536Z,6.53
2019-03-29T15:18:40.303Z,6.95
2019-03-29T15:21:11.850Z,6.70
2019-03-29T15:23:42.812Z,8.03
2019-03-29T15:26:13.949Z,7.55
2019-03-29T15:28:45.105Z,7.65
2019-03-29T15:31:17.291Z,7.58
2019-03-29T15:33:49.429Z,7.92
2019-03-29T15:36:20.489Z,8.68
2019-03-29T15:38:51.597Z,9.48
2019-03-29T15:41:22.598Z,8.90
2019-03-29T15:43:53.630Z,8.45
2019-03-29T15:46:24.779Z,8.35
2019-03-29T15:48:55.796Z,9.43
2019-03-29T15:51:26.883Z,9.20
2019-03-29T15:53:57.922Z,11.43
2019-03-29T15:56:28.957Z,13.72
2019-03-29T15:58:59.967Z,12.60
2019-03-29T16:01:31.973Z,12.43
2019-03-29T16:04:03.995Z,11.48
2019-03-29T16:06:35.052Z,11.08
2019-03-29T16:09:06.446Z,11.70
2019-03-29T16:11:37.587Z,10.68
2019-03-29T16:14:08.589Z,11.95
2019-03-29T16:16:39.647Z,11.78
2019-03-29T16:19:10.642Z,11.97
2019-03-29T16:21:42.762Z,10.43
2019-03-29T16:24:14.947Z,11.60
2019-03-29T16:26:46.036Z,11.20
2019-03-29T16:29:17.196Z,10.65
2019-03-29T16:31:48.604Z,11.18
2019-03-29T16:34:19.772Z,11.57
2019-03-29T16:36:50.835Z,11.30
2019-03-29T16:39:21.878Z,11.33
2019-03-29T16:41:53.006Z,11.40
2019-03-29T16:44:24.382Z,11.73
2019-03-29T16:46:55.482Z,12.05
2019-03-29T16:49:28.253Z,12.30
2019-03-29T16:51:59.330Z,12.18
2019-03-29T16:54:36.857Z,12.35
2019-03-29T16:57:07.963Z,12.63
2019-03-29T16:59:39.064Z,13.38
2019-03-29T17:02:10.330Z,12.55
2019-03-29T17:04:42.494Z,82.97
2019-03-29T17:07:13.588Z,12.55
2019-03-29T17:09:44.589Z,12.25
2019-03-29T17:12:15.740Z,12.75
2019-03-29T17:14:48.802Z,11.97
2019-03-29T17:17:20.250Z,14.03
2019-03-29T17:19:51.483Z,14.60
2019-03-29T17:22:22.738Z,13.58
2019-03-29T17:24:57.207Z,14.35
2019-03-29T17:27:28.568Z,13.28
2019-03-29T17:30:00.041Z,13.62
2019-03-29T17:32:31.262Z,14.33
2019-03-29T17:35:02.457Z,13.18
2019-03-29T17:37:33.601Z,14.10
2019-03-29T17:40:06.868Z,15.28
2019-03-29T17:42:38.001Z,14.35
2019-03-29T17:45:15.661Z,14.00
2019-03-29T17:47:46.769Z,14.38
2019-03-29T17:50:17.954Z,14.40
2019-03-29T17:52:49.152Z,14.25
2019-03-29T17:55:20.158Z,14.47
2019-03-29T17:57:51.284Z,13.80
2019-03-29T18:00:27.438Z,13.00
2019-03-29T18:02:58.731Z,14.00
2019-03-29T18:05:29.822Z,48.75
2019-03-29T18:08:00.853Z,14.35
2019-03-29T18:10:31.890Z,14.40
2019-03-29T18:13:04.899Z,13.98
2019-03-29T18:15:35.972Z,13.48
2019-03-29T18:18:07.163Z,14.50
2019-03-29T18:20:38.347Z,14.25
2019-03-29T18:23:09.438Z,14.38
2019-03-29T18:25:41.539Z,14.60
2019-03-29T18:28:12.674Z,14.95
2019-03-29T18:30:43.790Z,14.25
2019-03-29T18:33:14.920Z,14.10
2019-03-29T18:35:47.050Z,15.25
2019-03-29T18:38:18.149Z,14.13
2019-03-29T18:40:49.405Z,14.90
2019-03-29T18:43:20.506Z,16.67
2019-03-29T18:45:51.729Z,17.05
2019-03-29T18:48:22.902Z,17.92
2019-03-29T18:50:53.933Z,15.43
2019-03-29T18:53:25.139Z,15.00
2019-03-29T18:55:56.233Z,12.43
2019-03-29T18:58:27.446Z,14.75
2019-03-29T19:00:58.475Z,16.50
2019-03-29T19:03:29.787Z,16.67
2019-03-29T19:06:01.837Z,17.42
2019-03-29T19:08:32.896Z,17.00
2019-03-29T19:11:04.039Z,21.27
2019-03-29T19:13:35.272Z,20.92
2019-03-29T19:16:06.340Z,19.57
2019-03-29T19:18:37.565Z,20.25
2019-03-29T19:21:08.753Z,19.98
2019-03-29T19:23:39.879Z,18.12
2019-03-29T19:26:10.917Z,20.70
2019-03-29T19:28:41.937Z,21.87
2019-03-29T19:31:12.944Z,23.12
2019-03-29T19:33:44.059Z,23.52
2019-03-29T19:36:15.418Z,23.80
2019-03-29T19:38:46.943Z,21.82
2019-03-29T19:41:17.968Z,22.20
2019-03-29T19:43:49.106Z,23.12
2019-03-29T19:46:20.209Z,24.02
2019-03-29T19:48:51.396Z,24.05
2019-03-29T19:51:22.710Z,26.10
2019-03-29T19:54:06.795Z,26.85
2019-03-29T19:56:31.026Z,27.32
2019-03-29T19:59:02.235Z,28.02
2019-03-29T20:01:33.328Z,31.12
2019-03-29T20:04:04.802Z,32.33
2019-03-29T20:06:37.101Z,31.77
2019-03-29T20:09:08.818Z,32.98
2019-03-29T20:11:40.347Z,32.58
2019-03-29T20:14:11.887Z,32.85
2019-03-29T20:16:43.035Z,34.00
2019-03-29T20:19:14.364Z,33.10
2019-03-29T20:21:45.518Z,31.42
2019-03-29T20:24:17.331Z,30.68
2019-03-29T20:26:48.446Z,30.52
2019-03-29T20:29:19.544Z,31.40
2019-03-29T20:31:50.884Z,31.55
2019-03-29T20:34:22.075Z,30.70
2019-03-29T20:36:53.128Z,30.25
2019-03-29T20:39:24.323Z,29.40
2019-03-29T20:41:55.479Z,30.82
2019-03-29T20:44:26.654Z,32.50
2019-03-29T20:46:57.805Z,31.90
2019-03-29T20:49:29.019Z,33.48
2019-03-29T20:52:00.329Z,32.98
2019-03-29T20:54:31.699Z,32.85
2019-03-29T20:57:02.758Z,31.75
2019-03-29T20:59:33.850Z,33.00
2019-03-29T21:02:04.966Z,34.73
2019-03-29T21:04:36.149Z,32.10
2019-03-29T21:07:07.236Z,29.57
2019-03-29T21:09:38.351Z,24.18
2019-03-29T21:12:09.472Z,19.92
2019-03-29T21:14:40.553Z,20.55
2019-03-29T21:17:11.882Z,20.12
2019-03-29T21:19:43.126Z,19.77
2019-03-29T21:22:14.216Z,19.12
2019-03-29T21:24:45.380Z,18.25
2019-03-29T21:27:16.576Z,19.48
2019-03-29T21:29:47.847Z,19.07
2019-03-29T21:32:18.965Z,19.00
2019-03-29T21:34:50.278Z,18.42
2019-03-29T21:37:21.562Z,18.32
2019-03-29T21:39:52.723Z,20.32
2019-03-29T21:42:23.851Z,20.25
2019-03-29T21:44:55.336Z,19.57
2019-03-29T21:47:26.358Z,18.32
2019-03-29T21:49:57.422Z,17.52
2019-03-29T21:52:28.699Z,16.85
2019-03-29T21:54:59.898Z,17.95
2019-03-29T21:57:30.935Z,15.90
2019-03-29T22:00:02.371Z,17.45
2019-03-29T22:02:33.942Z,17.07
2019-03-29T22:05:06.225Z,17.73
2019-03-29T22:07:38.448Z,18.40
2019-03-29T22:10:11.416Z,18.20
2019-03-29T22:12:43.422Z,19.65
2019-03-29T22:15:19.087Z,19.73
2019-03-29T22:17:50.403Z,19.80
2019-03-29T22:20:21.751Z,19.98
2019-03-29T22:22:53.015Z,20.35
2019-03-29T22:25:24.264Z,21.62
2019-03-29T22:27:55.573Z,22.27
2019-03-29T22:30:26.948Z,22.45
2019-03-29T22:32:58.139Z,23.80
2019-03-29T22:35:29.252Z,22.50
2019-03-29T22:38:01.930Z,25.65
2019-03-29T22:40:33.210Z,23.22
2019-03-29T22:43:07.304Z,23.70
2019-03-29T22:45:38.346Z,24.90
2019-03-29T22:48:10.489Z,23.90
2019-03-29T22:50:41.626Z,25.55
2019-03-29T22:53:12.845Z,25.62
2019-03-29T22:55:43.945Z,26.65
2019-03-29T22:58:16.028Z,25.95
2019-03-29T23:00:51.682Z,25.65
2019-03-29T23:03:22.955Z,26.42
2019-03-29T23:05:54.115Z,27.48
2019-03-29T23:08:25.170Z,27.77
2019-03-29T23:10:56.163Z,28.20
2019-03-29T23:13:28.874Z,29.40
2019-03-29T23:15:59.980Z,31.30
2019-03-29T23:18:33.632Z,30.00
2019-03-29T23:21:04.669Z,31.15
2019-03-29T23:23:35.819Z,30.45
2019-03-29T23:26:06.900Z,32.10
2019-03-29T23:28:38.384Z,31.62
2019-03-29T23:31:09.468Z,30.90
2019-03-29T23:33:40.773Z,31.93
2019-03-29T23:36:11.861Z,32.53
2019-03-29T23:38:49.156Z,32.40
2019-03-29T23:41:20.443Z,33.25
2019-03-29T23:43:51.562Z,33.33
2019-03-29T23:46:23.836Z,85.67
2019-03-29T23:48:55.163Z,34.18
